sensor_id;sensor_type;location;lat;lon;timestamp;P1;durP1;ratioP1;P2;durP2;ratioP2
3095;SDS011;1558;42.700;23.360;2022-10-22T00:00:58;26.17;;;23.03;;
3095;SDS011;1558;42.700;23.360;2022-10-22T00:03:26;26.60;;;23.70;;
3095;SDS011;1558;42.700;23.360;2022-10-22T00:05:53;25.97;;;23.20;;
3095;SDS011;1558;42.700;23.360;2022-10-22T00:08:21;29.87;;;24.07;;
3095;SDS011;1558;42.700;23.360;2022-10-22T00:10:49;26.87;;;24.07;;
3095;SDS011;1558;42.700;23.360;2022-10-22T00:13:19;28.00;;;23.13;;
3095;SDS011;1558;42.700;23.360;2022-10-22T00:15:47;30.13;;;23.30;;
3095;SDS011;1558;42.700;23.360;2022-10-22T00:18:15;26.83;;;23.83;;
3095;SDS011;1558;42.700;23.360;2022-10-22T00:20:43;30.03;;;22.93;;
3095;SDS011;1558;42.700;23.360;2022-10-22T00:23:10;28.27;;;22.80;;
3095;SDS011;1558;42.700;23.360;2022-10-22T00:25:38;26.37;;;22.70;;
3095;SDS011;1558;42.700;23.360;2022-10-22T00:28:06;28.43;;;23.90;;
3095;SDS011;1558;42.700;23.360;2022-10-22T00:30:35;27.40;;;23.43;;
3095;SDS011;1558;42.700;23.360;2022-10-22T00:33:03;25.07;;;22.43;;
3095;SDS011;1558;42.700;23.360;2022-10-22T00:35:31;25.43;;;22.80;;
3095;SDS011;1558;42.700;23.360;2022-10-22T00:37:59;28.03;;;23.07;;
3095;SDS011;1558;42.700;23.360;2022-10-22T00:40:27;26.13;;;23.33;;
3095;SDS011;1558;42.700;23.360;2022-10-22T00:42:55;28.03;;;24.07;;
3095;SDS011;1558;42.700;23.360;2022-10-22T00:45:24;27.77;;;22.87;;
3095;SDS011;1558;42.700;23.360;2022-10-22T00:47:57;26.47;;;23.73;;
3095;SDS011;1558;42.700;23.360;2022-10-22T00:50:32;29.33;;;23.97;;
3095;SDS011;1558;42.700;23.360;2022-10-22T00:53:02;28.13;;;23.43;;
3095;SDS011;1558;42.700;23.360;2022-10-22T00:55:34;25.10;;;22.23;;
3095;SDS011;1558;42.700;23.360;2022-10-22T00:58:03;25.87;;;22.80;;
3095;SDS011;1558;42.700;23.360;2022-10-22T01:00:31;27.57;;;23.10;;
3095;SDS011;1558;42.700;23.360;2022-10-22T01:03:00;30.90;;;24.37;;
3095;SDS011;1558;42.700;23.360;2022-10-22T01:05:29;28.13;;;23.90;;
3095;SDS011;1558;42.700;23.360;2022-10-22T01:08:05;28.33;;;23.47;;
3095;SDS011;1558;42.700;23.360;2022-10-22T01:10:44;27.40;;;23.53;;
3095;SDS011;1558;42.700;23.360;2022-10-22T01:13:26;27.93;;;24.30;;
3095;SDS011;1558;42.700;23.360;2022-10-22T01:16:06;28.93;;;23.50;;
3095;SDS011;1558;42.700;23.360;2022-10-22T01:18:40;24.63;;;22.13;;
3095;SDS011;1558;42.700;23.360;2022-10-22T01:21:20;26.73;;;23.83;;
3095;SDS011;1558;42.700;23.360;2022-10-22T01:24:08;29.07;;;22.50;;
3095;SDS011;1558;42.700;23.360;2022-10-22T01:26:52;28.90;;;24.47;;
3095;SDS011;1558;42.700;23.360;2022-10-22T01:29:28;29.23;;;25.47;;
3095;SDS011;1558;42.700;23.360;2022-10-22T01:32:01;27.93;;;24.37;;
3095;SDS011;1558;42.700;23.360;2022-10-22T01:34:33;28.97;;;25.43;;
3095;SDS011;1558;42.700;23.360;2022-10-22T01:37:05;26.63;;;23.87;;
3095;SDS011;1558;42.700;23.360;2022-10-22T01:39:34;31.57;;;24.80;;
3095;SDS011;1558;42.700;23.360;2022-10-22T01:42:04;32.37;;;25.53;;
3095;SDS011;1558;42.700;23.360;2022-10-22T01:44:34;28.90;;;24.20;;
3095;SDS011;1558;42.700;23.360;2022-10-22T01:47:13;28.77;;;25.60;;
3095;SDS011;1558;42.700;23.360;2022-10-22T01:49:51;31.30;;;25.03;;
3095;SDS011;1558;42.700;23.360;2022-10-22T01:52:30;27.27;;;24.23;;
3095;SDS011;1558;42.700;23.360;2022-10-22T01:55:13;30.93;;;24.47;;
3095;SDS011;1558;42.700;23.360;2022-10-22T01:57:51;32.00;;;24.90;;
3095;SDS011;1558;42.700;23.360;2022-10-22T02:00:28;31.40;;;24.53;;
3095;SDS011;1558;42.700;23.360;2022-10-22T02:02:57;31.20;;;26.20;;
3095;SDS011;1558;42.700;23.360;2022-10-22T02:05:31;29.60;;;25.97;;
3095;SDS011;1558;42.700;23.360;2022-10-22T02:08:04;28.87;;;25.77;;
3095;SDS011;1558;42.700;23.360;2022-10-22T02:10:35;28.93;;;25.83;;
3095;SDS011;1558;42.700;23.360;2022-10-22T02:13:06;29.33;;;25.30;;
3095;SDS011;1558;42.700;23.360;2022-10-22T02:15:37;28.50;;;25.40;;
3095;SDS011;1558;42.700;23.360;2022-10-22T02:18:06;29.60;;;25.77;;
3095;SDS011;1558;42.700;23.360;2022-10-22T02:20:36;31.33;;;26.10;;
3095;SDS011;1558;42.700;23.360;2022-10-22T02:23:07;28.00;;;25.00;;
3095;SDS011;1558;42.700;23.360;2022-10-22T02:25:38;29.20;;;24.87;;
3095;SDS011;1558;42.700;23.360;2022-10-22T02:28:09;31.30;;;26.67;;
3095;SDS011;1558;42.700;23.360;2022-10-22T02:30:45;31.37;;;25.40;;
3095;SDS011;1558;42.700;23.360;2022-10-22T02:33:20;30.27;;;27.07;;
3095;SDS011;1558;42.700;23.360;2022-10-22T02:35:50;33.67;;;25.87;;
3095;SDS011;1558;42.700;23.360;2022-10-22T02:38:20;29.43;;;24.20;;
3095;SDS011;1558;42.700;23.360;2022-10-22T02:40:50;30.37;;;25.10;;
3095;SDS011;1558;42.700;23.360;2022-10-22T02:43:18;30.13;;;25.20;;
3095;SDS011;1558;42.700;23.360;2022-10-22T02:45:47;31.27;;;26.33;;
3095;SDS011;1558;42.700;23.360;2022-10-22T02:48:15;29.13;;;25.40;;
3095;SDS011;1558;42.700;23.360;2022-10-22T02:50:43;29.63;;;26.23;;
3095;SDS011;1558;42.700;23.360;2022-10-22T02:53:11;32.83;;;26.17;;
3095;SDS011;1558;42.700;23.360;2022-10-22T02:55:39;32.00;;;26.20;;
3095;SDS011;1558;42.700;23.360;2022-10-22T02:58:07;29.70;;;24.70;;
3095;SDS011;1558;42.700;23.360;2022-10-22T03:00:36;27.50;;;24.67;;
3095;SDS011;1558;42.700;23.360;2022-10-22T03:03:05;28.57;;;25.20;;
3095;SDS011;1558;42.700;23.360;2022-10-22T03:05:34;30.00;;;26.07;;
3095;SDS011;1558;42.700;23.360;2022-10-22T03:08:02;32.47;;;26.43;;
3095;SDS011;1558;42.700;23.360;2022-10-22T03:10:30;29.63;;;25.17;;
3095;SDS011;1558;42.700;23.360;2022-10-22T03:12:58;29.63;;;26.07;;
3095;SDS011;1558;42.700;23.360;2022-10-22T03:15:27;34.37;;;25.80;;
3095;SDS011;1558;42.700;23.360;2022-10-22T03:17:54;29.53;;;24.87;;
3095;SDS011;1558;42.700;23.360;2022-10-22T03:20:24;32.70;;;26.33;;
3095;SDS011;1558;42.700;23.360;2022-10-22T03:22:51;32.77;;;26.60;;
3095;SDS011;1558;42.700;23.360;2022-10-22T03:25:21;28.10;;;25.17;;
3095;SDS011;1558;42.700;23.360;2022-10-22T03:27:50;29.97;;;25.60;;
3095;SDS011;1558;42.700;23.360;2022-10-22T03:30:20;30.30;;;27.07;;
3095;SDS011;1558;42.700;23.360;2022-10-22T03:32:48;33.90;;;26.23;;
3095;SDS011;1558;42.700;23.360;2022-10-22T03:35:16;35.57;;;29.67;;
3095;SDS011;1558;42.700;23.360;2022-10-22T03:37:45;35.03;;;28.87;;
3095;SDS011;1558;42.700;23.360;2022-10-22T03:40:13;30.03;;;26.73;;
3095;SDS011;1558;42.700;23.360;2022-10-22T03:42:41;32.80;;;26.97;;
3095;SDS011;1558;42.700;23.360;2022-10-22T03:45:10;34.13;;;28.83;;
3095;SDS011;1558;42.700;23.360;2022-10-22T03:47:38;35.90;;;26.50;;
3095;SDS011;1558;42.700;23.360;2022-10-22T03:50:07;32.40;;;28.50;;
3095;SDS011;1558;42.700;23.360;2022-10-22T03:52:36;37.63;;;28.97;;
3095;SDS011;1558;42.700;23.360;2022-10-22T03:55:07;36.50;;;28.10;;
3095;SDS011;1558;42.700;23.360;2022-10-22T03:57:35;30.37;;;25.60;;
3095;SDS011;1558;42.700;23.360;2022-10-22T04:00:04;31.40;;;25.73;;
3095;SDS011;1558;42.700;23.360;2022-10-22T04:02:33;31.37;;;25.50;;
3095;SDS011;1558;42.700;23.360;2022-10-22T04:05:01;29.13;;;24.20;;
3095;SDS011;1558;42.700;23.360;2022-10-22T04:07:29;32.80;;;25.73;;
3095;SDS011;1558;42.700;23.360;2022-10-22T04:09:57;33.57;;;27.80;;
3095;SDS011;1558;42.700;23.360;2022-10-22T04:12:26;33.00;;;27.93;;
3095;SDS011;1558;42.700;23.360;2022-10-22T04:14:54;33.57;;;27.30;;
3095;SDS011;1558;42.700;23.360;2022-10-22T04:17:22;29.50;;;25.77;;
3095;SDS011;1558;42.700;23.360;2022-10-22T04:19:50;36.13;;;25.97;;
3095;SDS011;1558;42.700;23.360;2022-10-22T04:22:17;31.07;;;25.67;;
3095;SDS011;1558;42.700;23.360;2022-10-22T04:24:45;30.73;;;25.83;;
3095;SDS011;1558;42.700;23.360;2022-10-22T04:27:13;30.57;;;27.00;;
3095;SDS011;1558;42.700;23.360;2022-10-22T04:29:42;28.83;;;25.40;;
3095;SDS011;1558;42.700;23.360;2022-10-22T04:32:10;29.87;;;26.30;;
3095;SDS011;1558;42.700;23.360;2022-10-22T04:34:38;29.77;;;25.57;;
3095;SDS011;1558;42.700;23.360;2022-10-22T04:37:06;36.70;;;26.87;;
3095;SDS011;1558;42.700;23.360;2022-10-22T04:39:34;33.77;;;25.83;;
3095;SDS011;1558;42.700;23.360;2022-10-22T04:42:02;31.70;;;26.23;;
3095;SDS011;1558;42.700;23.360;2022-10-22T04:44:30;31.67;;;25.20;;
3095;SDS011;1558;42.700;23.360;2022-10-22T04:46:59;30.83;;;25.70;;
3095;SDS011;1558;42.700;23.360;2022-10-22T04:49:27;34.10;;;29.33;;
3095;SDS011;1558;42.700;23.360;2022-10-22T04:51:55;32.93;;;29.07;;
3095;SDS011;1558;42.700;23.360;2022-10-22T04:54:23;34.83;;;31.07;;
3095;SDS011;1558;42.700;23.360;2022-10-22T04:56:57;34.97;;;28.53;;
3095;SDS011;1558;42.700;23.360;2022-10-22T04:59:25;35.43;;;29.63;;
3095;SDS011;1558;42.700;23.360;2022-10-22T05:01:53;32.83;;;28.80;;
3095;SDS011;1558;42.700;23.360;2022-10-22T05:04:22;32.20;;;27.57;;
3095;SDS011;1558;42.700;23.360;2022-10-22T05:06:50;34.57;;;27.70;;
3095;SDS011;1558;42.700;23.360;2022-10-22T05:09:18;34.90;;;27.77;;
3095;SDS011;1558;42.700;23.360;2022-10-22T05:11:47;33.83;;;28.20;;
3095;SDS011;1558;42.700;23.360;2022-10-22T05:14:17;33.13;;;27.33;;
3095;SDS011;1558;42.700;23.360;2022-10-22T05:16:46;32.60;;;26.93;;
3095;SDS011;1558;42.700;23.360;2022-10-22T05:19:15;31.83;;;26.73;;
3095;SDS011;1558;42.700;23.360;2022-10-22T05:21:46;31.50;;;27.10;;
3095;SDS011;1558;42.700;23.360;2022-10-22T05:24:14;32.07;;;25.17;;
3095;SDS011;1558;42.700;23.360;2022-10-22T05:26:42;30.27;;;25.90;;
3095;SDS011;1558;42.700;23.360;2022-10-22T05:29:10;29.13;;;23.93;;
3095;SDS011;1558;42.700;23.360;2022-10-22T05:31:37;38.73;;;33.47;;
3095;SDS011;1558;42.700;23.360;2022-10-22T05:34:06;33.03;;;27.17;;
3095;SDS011;1558;42.700;23.360;2022-10-22T05:36:34;28.00;;;23.33;;
3095;SDS011;1558;42.700;23.360;2022-10-22T05:39:04;30.60;;;24.27;;
3095;SDS011;1558;42.700;23.360;2022-10-22T05:41:32;29.47;;;23.33;;
3095;SDS011;1558;42.700;23.360;2022-10-22T05:44:02;31.97;;;24.23;;
3095;SDS011;1558;42.700;23.360;2022-10-22T05:46:32;29.67;;;23.73;;
3095;SDS011;1558;42.700;23.360;2022-10-22T05:49:02;27.17;;;23.70;;
3095;SDS011;1558;42.700;23.360;2022-10-22T05:51:33;27.17;;;22.97;;
3095;SDS011;1558;42.700;23.360;2022-10-22T05:54:04;28.13;;;22.57;;
3095;SDS011;1558;42.700;23.360;2022-10-22T05:56:36;28.17;;;24.07;;
3095;SDS011;1558;42.700;23.360;2022-10-22T05:59:04;31.83;;;23.80;;
3095;SDS011;1558;42.700;23.360;2022-10-22T06:01:33;28.47;;;23.87;;
3095;SDS011;1558;42.700;23.360;2022-10-22T06:04:02;30.40;;;23.57;;
3095;SDS011;1558;42.700;23.360;2022-10-22T06:06:32;29.47;;;24.33;;
3095;SDS011;1558;42.700;23.360;2022-10-22T06:09:02;30.77;;;24.47;;
3095;SDS011;1558;42.700;23.360;2022-10-22T06:11:34;28.60;;;25.10;;
3095;SDS011;1558;42.700;23.360;2022-10-22T06:14:02;36.73;;;25.83;;
3095;SDS011;1558;42.700;23.360;2022-10-22T06:16:30;31.70;;;25.17;;
3095;SDS011;1558;42.700;23.360;2022-10-22T06:18:59;32.63;;;25.53;;
3095;SDS011;1558;42.700;23.360;2022-10-22T06:21:28;29.93;;;25.53;;
3095;SDS011;1558;42.700;23.360;2022-10-22T06:23:57;31.00;;;26.50;;
3095;SDS011;1558;42.700;23.360;2022-10-22T06:26:27;31.67;;;25.73;;
3095;SDS011;1558;42.700;23.360;2022-10-22T06:28:55;33.83;;;26.77;;
3095;SDS011;1558;42.700;23.360;2022-10-22T06:31:24;30.77;;;25.47;;
3095;SDS011;1558;42.700;23.360;2022-10-22T06:33:53;32.30;;;25.50;;
3095;SDS011;1558;42.700;23.360;2022-10-22T06:36:23;30.97;;;26.77;;
3095;SDS011;1558;42.700;23.360;2022-10-22T06:38:51;29.23;;;26.17;;
3095;SDS011;1558;42.700;23.360;2022-10-22T06:41:21;31.00;;;27.33;;
3095;SDS011;1558;42.700;23.360;2022-10-22T06:43:57;33.87;;;27.63;;
3095;SDS011;1558;42.700;23.360;2022-10-22T06:46:26;32.50;;;27.73;;
3095;SDS011;1558;42.700;23.360;2022-10-22T06:48:58;33.23;;;27.20;;
3095;SDS011;1558;42.700;23.360;2022-10-22T06:51:29;32.50;;;29.03;;
3095;SDS011;1558;42.700;23.360;2022-10-22T06:53:58;33.03;;;28.37;;
3095;SDS011;1558;42.700;23.360;2022-10-22T06:56:28;32.00;;;28.63;;
3095;SDS011;1558;42.700;23.360;2022-10-22T06:59:00;35.93;;;28.13;;
3095;SDS011;1558;42.700;23.360;2022-10-22T07:01:30;33.00;;;27.67;;
3095;SDS011;1558;42.700;23.360;2022-10-22T07:04:01;35.17;;;28.53;;
3095;SDS011;1558;42.700;23.360;2022-10-22T07:06:31;35.47;;;26.57;;
3095;SDS011;1558;42.700;23.360;2022-10-22T07:09:02;32.50;;;27.63;;
3095;SDS011;1558;42.700;23.360;2022-10-22T07:11:36;31.57;;;28.20;;
3095;SDS011;1558;42.700;23.360;2022-10-22T07:14:09;32.27;;;29.00;;
3095;SDS011;1558;42.700;23.360;2022-10-22T07:16:41;30.60;;;27.27;;
3095;SDS011;1558;42.700;23.360;2022-10-22T07:19:12;31.37;;;28.00;;
3095;SDS011;1558;42.700;23.360;2022-10-22T07:21:42;28.53;;;25.60;;
3095;SDS011;1558;42.700;23.360;2022-10-22T07:24:12;27.67;;;24.93;;
3095;SDS011;1558;42.700;23.360;2022-10-22T07:26:43;28.03;;;25.20;;
3095;SDS011;1558;42.700;23.360;2022-10-22T07:29:15;27.63;;;24.93;;
3095;SDS011;1558;42.700;23.360;2022-10-22T07:31:44;27.60;;;24.97;;
3095;SDS011;1558;42.700;23.360;2022-10-22T07:34:14;27.77;;;25.07;;
3095;SDS011;1558;42.700;23.360;2022-10-22T07:36:42;27.73;;;24.92;;
3095;SDS011;1558;42.700;23.360;2022-10-22T07:39:10;30.48;;;26.30;;
3095;SDS011;1558;42.700;23.360;2022-10-22T07:41:38;30.33;;;27.02;;
3095;SDS011;1558;42.700;23.360;2022-10-22T07:44:06;28.92;;;25.75;;
3095;SDS011;1558;42.700;23.360;2022-10-22T07:46:35;30.63;;;27.08;;
3095;SDS011;1558;42.700;23.360;2022-10-22T07:49:03;29.17;;;26.17;;
3095;SDS011;1558;42.700;23.360;2022-10-22T07:51:31;29.38;;;26.58;;
3095;SDS011;1558;42.700;23.360;2022-10-22T07:53:59;29.52;;;26.50;;
3095;SDS011;1558;42.700;23.360;2022-10-22T07:56:26;29.55;;;26.55;;
3095;SDS011;1558;42.700;23.360;2022-10-22T07:58:54;30.92;;;27.58;;
3095;SDS011;1558;42.700;23.360;2022-10-22T08:01:22;30.30;;;27.38;;
3095;SDS011;1558;42.700;23.360;2022-10-22T08:03:52;39.72;;;35.42;;
3095;SDS011;1558;42.700;23.360;2022-10-22T08:06:20;30.73;;;27.38;;
3095;SDS011;1558;42.700;23.360;2022-10-22T08:08:48;34.17;;;29.02;;
3095;SDS011;1558;42.700;23.360;2022-10-22T08:11:16;29.90;;;26.90;;
3095;SDS011;1558;42.700;23.360;2022-10-22T08:13:44;28.77;;;25.85;;
3095;SDS011;1558;42.700;23.360;2022-10-22T08:16:13;28.75;;;25.55;;
3095;SDS011;1558;42.700;23.360;2022-10-22T08:18:41;29.80;;;26.83;;
3095;SDS011;1558;42.700;23.360;2022-10-22T08:21:10;28.70;;;25.75;;
3095;SDS011;1558;42.700;23.360;2022-10-22T08:23:39;29.38;;;26.38;;
3095;SDS011;1558;42.700;23.360;2022-10-22T08:26:07;35.67;;;31.98;;
3095;SDS011;1558;42.700;23.360;2022-10-22T08:28:35;31.58;;;28.60;;
3095;SDS011;1558;42.700;23.360;2022-10-22T08:31:03;28.90;;;26.00;;
3095;SDS011;1558;42.700;23.360;2022-10-22T08:33:31;29.45;;;26.85;;
3095;SDS011;1558;42.700;23.360;2022-10-22T08:35:59;28.13;;;25.30;;
3095;SDS011;1558;42.700;23.360;2022-10-22T08:38:28;28.63;;;26.15;;
3095;SDS011;1558;42.700;23.360;2022-10-22T08:40:59;29.60;;;26.88;;
3095;SDS011;1558;42.700;23.360;2022-10-22T08:43:50;28.75;;;25.73;;
3095;SDS011;1558;42.700;23.360;2022-10-22T08:46:43;28.25;;;25.42;;
3095;SDS011;1558;42.700;23.360;2022-10-22T08:49:21;28.77;;;25.85;;
3095;SDS011;1558;42.700;23.360;2022-10-22T08:51:52;28.17;;;25.25;;
3095;SDS011;1558;42.700;23.360;2022-10-22T08:54:25;23.50;;;21.38;;
3095;SDS011;1558;42.700;23.360;2022-10-22T08:57:05;23.60;;;21.45;;
3095;SDS011;1558;42.700;23.360;2022-10-22T08:59:45;24.65;;;22.08;;
3095;SDS011;1558;42.700;23.360;2022-10-22T09:02:19;22.60;;;20.42;;
3095;SDS011;1558;42.700;23.360;2022-10-22T09:04:55;24.88;;;20.77;;
3095;SDS011;1558;42.700;23.360;2022-10-22T09:07:41;21.35;;;19.55;;
3095;SDS011;1558;42.700;23.360;2022-10-22T09:10:17;21.05;;;18.75;;
3095;SDS011;1558;42.700;23.360;2022-10-22T09:12:46;20.58;;;18.55;;
3095;SDS011;1558;42.700;23.360;2022-10-22T09:15:14;20.63;;;18.83;;
3095;SDS011;1558;42.700;23.360;2022-10-22T09:17:56;20.17;;;18.23;;
3095;SDS011;1558;42.700;23.360;2022-10-22T09:20:33;20.33;;;18.33;;
3095;SDS011;1558;42.700;23.360;2022-10-22T09:23:16;20.40;;;18.27;;
3095;SDS011;1558;42.700;23.360;2022-10-22T09:25:52;21.83;;;19.60;;
3095;SDS011;1558;42.700;23.360;2022-10-22T09:28:20;20.00;;;18.08;;
3095;SDS011;1558;42.700;23.360;2022-10-22T09:30:48;20.27;;;18.27;;
3095;SDS011;1558;42.700;23.360;2022-10-22T09:33:18;18.38;;;16.77;;
3095;SDS011;1558;42.700;23.360;2022-10-22T09:35:51;18.77;;;17.08;;
3095;SDS011;1558;42.700;23.360;2022-10-22T09:38:20;19.83;;;17.83;;
3095;SDS011;1558;42.700;23.360;2022-10-22T09:40:54;19.00;;;17.08;;
3095;SDS011;1558;42.700;23.360;2022-10-22T09:43:23;19.27;;;17.33;;
3095;SDS011;1558;42.700;23.360;2022-10-22T09:45:55;24.42;;;17.63;;
3095;SDS011;1558;42.700;23.360;2022-10-22T09:48:27;18.40;;;16.70;;
3095;SDS011;1558;42.700;23.360;2022-10-22T09:50:58;17.10;;;15.63;;
3095;SDS011;1558;42.700;23.360;2022-10-22T09:53:34;18.33;;;16.60;;
3095;SDS011;1558;42.700;23.360;2022-10-22T09:56:08;19.35;;;17.40;;
3095;SDS011;1558;42.700;23.360;2022-10-22T09:58:43;18.65;;;16.75;;
3095;SDS011;1558;42.700;23.360;2022-10-22T10:01:15;19.85;;;17.98;;
3095;SDS011;1558;42.700;23.360;2022-10-22T10:03:46;19.20;;;17.55;;
3095;SDS011;1558;42.700;23.360;2022-10-22T10:06:17;18.63;;;16.83;;
3095;SDS011;1558;42.700;23.360;2022-10-22T10:08:46;20.65;;;18.65;;
3095;SDS011;1558;42.700;23.360;2022-10-22T10:11:18;19.70;;;17.95;;
3095;SDS011;1558;42.700;23.360;2022-10-22T10:13:58;19.75;;;17.95;;
3095;SDS011;1558;42.700;23.360;2022-10-22T10:16:45;22.13;;;19.92;;
3095;SDS011;1558;42.700;23.360;2022-10-22T10:19:31;20.60;;;18.40;;
3095;SDS011;1558;42.700;23.360;2022-10-22T10:22:12;17.85;;;16.13;;
3095;SDS011;1558;42.700;23.360;2022-10-22T10:24:56;18.38;;;16.63;;
3095;SDS011;1558;42.700;23.360;2022-10-22T10:27:48;18.08;;;15.95;;
3095;SDS011;1558;42.700;23.360;2022-10-22T10:30:23;17.42;;;15.82;;
3095;SDS011;1558;42.700;23.360;2022-10-22T10:32:59;18.30;;;16.58;;
3095;SDS011;1558;42.700;23.360;2022-10-22T10:35:39;17.45;;;15.82;;
3095;SDS011;1558;42.700;23.360;2022-10-22T10:38:28;19.58;;;17.60;;
3095;SDS011;1558;42.700;23.360;2022-10-22T10:41:12;18.13;;;16.40;;
3095;SDS011;1558;42.700;23.360;2022-10-22T10:43:49;17.70;;;16.15;;
3095;SDS011;1558;42.700;23.360;2022-10-22T10:46:31;16.75;;;15.27;;
3095;SDS011;1558;42.700;23.360;2022-10-22T10:49:06;17.30;;;15.68;;
3095;SDS011;1558;42.700;23.360;2022-10-22T10:51:37;17.58;;;15.88;;
3095;SDS011;1558;42.700;23.360;2022-10-22T10:54:15;17.27;;;15.60;;
3095;SDS011;1558;42.700;23.360;2022-10-22T10:56:54;17.35;;;15.75;;
3095;SDS011;1558;42.700;23.360;2022-10-22T10:59:29;19.58;;;17.98;;
3095;SDS011;1558;42.700;23.360;2022-10-22T11:02:13;17.17;;;15.60;;
3095;SDS011;1558;42.700;23.360;2022-10-22T11:05:06;16.50;;;15.10;;
3095;SDS011;1558;42.700;23.360;2022-10-22T11:07:48;17.33;;;15.82;;
3095;SDS011;1558;42.700;23.360;2022-10-22T11:10:24;18.30;;;16.52;;
3095;SDS011;1558;42.700;23.360;2022-10-22T11:12:56;17.48;;;15.75;;
3095;SDS011;1558;42.700;23.360;2022-10-22T11:15:32;18.13;;;16.35;;
3095;SDS011;1558;42.700;23.360;2022-10-22T11:18:05;17.88;;;15.95;;
3095;SDS011;1558;42.700;23.360;2022-10-22T11:20:43;18.13;;;16.25;;
3095;SDS011;1558;42.700;23.360;2022-10-22T11:23:31;17.67;;;15.98;;
3095;SDS011;1558;42.700;23.360;2022-10-22T11:26:05;16.83;;;15.05;;
3095;SDS011;1558;42.700;23.360;2022-10-22T11:28:40;17.90;;;16.20;;
3095;SDS011;1558;42.700;23.360;2022-10-22T11:31:14;16.63;;;15.13;;
3095;SDS011;1558;42.700;23.360;2022-10-22T11:33:44;16.75;;;14.98;;
3095;SDS011;1558;42.700;23.360;2022-10-22T11:36:30;17.27;;;15.02;;
3095;SDS011;1558;42.700;23.360;2022-10-22T11:39:01;16.38;;;14.88;;
3095;SDS011;1558;42.700;23.360;2022-10-22T11:41:31;17.10;;;14.57;;
3095;SDS011;1558;42.700;23.360;2022-10-22T11:44:08;17.10;;;14.48;;
3095;SDS011;1558;42.700;23.360;2022-10-22T11:46:42;15.40;;;13.93;;
3095;SDS011;1558;42.700;23.360;2022-10-22T11:49:16;16.48;;;14.60;;
3095;SDS011;1558;42.700;23.360;2022-10-22T11:51:48;14.57;;;13.32;;
3095;SDS011;1558;42.700;23.360;2022-10-22T11:54:28;14.15;;;12.85;;
3095;SDS011;1558;42.700;23.360;2022-10-22T11:57:15;15.05;;;13.60;;
3095;SDS011;1558;42.700;23.360;2022-10-22T11:59:47;15.70;;;14.10;;
3095;SDS011;1558;42.700;23.360;2022-10-22T12:02:29;17.25;;;14.27;;
3095;SDS011;1558;42.700;23.360;2022-10-22T12:05:31;14.38;;;13.18;;
3095;SDS011;1558;42.700;23.360;2022-10-22T12:08:05;15.15;;;13.70;;
3095;SDS011;1558;42.700;23.360;2022-10-22T12:10:50;14.43;;;13.02;;
3095;SDS011;1558;42.700;23.360;2022-10-22T12:13:25;13.63;;;12.35;;
3095;SDS011;1558;42.700;23.360;2022-10-22T12:15:55;14.48;;;12.60;;
3095;SDS011;1558;42.700;23.360;2022-10-22T12:18:27;14.10;;;12.63;;
3095;SDS011;1558;42.700;23.360;2022-10-22T12:21:01;14.00;;;12.77;;
3095;SDS011;1558;42.700;23.360;2022-10-22T12:23:30;13.55;;;12.35;;
3095;SDS011;1558;42.700;23.360;2022-10-22T12:26:02;13.35;;;12.15;;
3095;SDS011;1558;42.700;23.360;2022-10-22T12:28:36;18.65;;;13.57;;
3095;SDS011;1558;42.700;23.360;2022-10-22T12:31:12;14.05;;;12.70;;
3095;SDS011;1558;42.700;23.360;2022-10-22T12:33:43;13.13;;;11.75;;
3095;SDS011;1558;42.700;23.360;2022-10-22T12:36:14;13.63;;;12.27;;
3095;SDS011;1558;42.700;23.360;2022-10-22T12:38:44;14.10;;;12.77;;
3095;SDS011;1558;42.700;23.360;2022-10-22T12:41:13;12.98;;;11.77;;
3095;SDS011;1558;42.700;23.360;2022-10-22T12:43:41;12.95;;;11.60;;
3095;SDS011;1558;42.700;23.360;2022-10-22T12:46:10;14.70;;;11.82;;
3095;SDS011;1558;42.700;23.360;2022-10-22T12:48:43;13.95;;;12.55;;
3095;SDS011;1558;42.700;23.360;2022-10-22T12:51:14;13.32;;;12.07;;
3095;SDS011;1558;42.700;23.360;2022-10-22T12:53:45;16.80;;;11.63;;
3095;SDS011;1558;42.700;23.360;2022-10-22T12:56:15;18.38;;;12.32;;
3095;SDS011;1558;42.700;23.360;2022-10-22T12:58:49;15.10;;;12.93;;
3095;SDS011;1558;42.700;23.360;2022-10-22T13:01:21;14.38;;;12.38;;
3095;SDS011;1558;42.700;23.360;2022-10-22T13:04:04;13.63;;;12.05;;
3095;SDS011;1558;42.700;23.360;2022-10-22T13:06:44;12.30;;;11.20;;
3095;SDS011;1558;42.700;23.360;2022-10-22T13:09:16;13.95;;;11.00;;
3095;SDS011;1558;42.700;23.360;2022-10-22T13:11:52;13.90;;;11.02;;
3095;SDS011;1558;42.700;23.360;2022-10-22T13:14:28;12.32;;;10.38;;
3095;SDS011;1558;42.700;23.360;2022-10-22T13:17:04;12.38;;;11.15;;
3095;SDS011;1558;42.700;23.360;2022-10-22T13:19:42;14.35;;;11.73;;
3095;SDS011;1558;42.700;23.360;2022-10-22T13:22:25;12.75;;;10.80;;
3095;SDS011;1558;42.700;23.360;2022-10-22T13:24:56;16.00;;;11.18;;
3095;SDS011;1558;42.700;23.360;2022-10-22T13:27:26;15.60;;;9.80;;
3095;SDS011;1558;42.700;23.360;2022-10-22T13:29:55;12.07;;;10.98;;
3095;SDS011;1558;42.700;23.360;2022-10-22T13:32:26;12.02;;;9.95;;
3095;SDS011;1558;42.700;23.360;2022-10-22T13:34:58;14.40;;;11.30;;
3095;SDS011;1558;42.700;23.360;2022-10-22T13:37:27;13.43;;;10.63;;
3095;SDS011;1558;42.700;23.360;2022-10-22T13:39:59;15.20;;;10.80;;
3095;SDS011;1558;42.700;23.360;2022-10-22T13:42:27;12.75;;;10.30;;
3095;SDS011;1558;42.700;23.360;2022-10-22T13:44:54;14.93;;;11.85;;
3095;SDS011;1558;42.700;23.360;2022-10-22T13:47:24;13.50;;;10.98;;
3095;SDS011;1558;42.700;23.360;2022-10-22T13:49:53;14.32;;;11.70;;
3095;SDS011;1558;42.700;23.360;2022-10-22T13:52:28;14.25;;;10.98;;
3095;SDS011;1558;42.700;23.360;2022-10-22T13:55:00;15.60;;;11.07;;
3095;SDS011;1558;42.700;23.360;2022-10-22T13:57:28;12.77;;;10.70;;
3095;SDS011;1558;42.700;23.360;2022-10-22T13:59:56;10.88;;;9.77;;
3095;SDS011;1558;42.700;23.360;2022-10-22T14:02:24;11.07;;;9.82;;
3095;SDS011;1558;42.700;23.360;2022-10-22T14:04:53;15.13;;;10.20;;
3095;SDS011;1558;42.700;23.360;2022-10-22T14:07:21;13.18;;;11.55;;
3095;SDS011;1558;42.700;23.360;2022-10-22T14:09:51;12.10;;;10.13;;
3095;SDS011;1558;42.700;23.360;2022-10-22T14:12:18;14.38;;;10.60;;
3095;SDS011;1558;42.700;23.360;2022-10-22T14:14:46;13.75;;;11.00;;
3095;SDS011;1558;42.700;23.360;2022-10-22T14:17:14;13.27;;;11.05;;
3095;SDS011;1558;42.700;23.360;2022-10-22T14:19:45;13.38;;;10.93;;
3095;SDS011;1558;42.700;23.360;2022-10-22T14:22:15;14.02;;;10.45;;
3095;SDS011;1558;42.700;23.360;2022-10-22T14:24:43;13.05;;;11.20;;
3095;SDS011;1558;42.700;23.360;2022-10-22T14:27:14;14.20;;;11.55;;
3095;SDS011;1558;42.700;23.360;2022-10-22T14:29:42;17.88;;;11.13;;
3095;SDS011;1558;42.700;23.360;2022-10-22T14:32:11;15.07;;;11.15;;
3095;SDS011;1558;42.700;23.360;2022-10-22T14:34:40;15.65;;;11.73;;
3095;SDS011;1558;42.700;23.360;2022-10-22T14:37:12;14.05;;;11.32;;
3095;SDS011;1558;42.700;23.360;2022-10-22T14:39:44;12.43;;;10.50;;
3095;SDS011;1558;42.700;23.360;2022-10-22T14:42:18;13.82;;;10.60;;
3095;SDS011;1558;42.700;23.360;2022-10-22T14:44:46;11.85;;;10.15;;
3095;SDS011;1558;42.700;23.360;2022-10-22T14:47:14;14.52;;;11.07;;
3095;SDS011;1558;42.700;23.360;2022-10-22T14:49:42;14.30;;;10.93;;
3095;SDS011;1558;42.700;23.360;2022-10-22T14:52:10;13.43;;;9.95;;
3095;SDS011;1558;42.700;23.360;2022-10-22T14:54:40;15.25;;;10.80;;
3095;SDS011;1558;42.700;23.360;2022-10-22T14:57:08;19.40;;;12.15;;
3095;SDS011;1558;42.700;23.360;2022-10-22T14:59:38;17.90;;;12.73;;
3095;SDS011;1558;42.700;23.360;2022-10-22T15:02:07;23.02;;;12.90;;